• Join FlightAware (Why Join?)
  • Login
  • US Flag 
08:00PM EDT


 

Airport Tracker/Info


-or-


 

Live Flight TrackerFlight Track Log ✈ LBQ924 ✈ 17-May-2012 ✈ KBWI - KPTW

Flight Track Log - Related Links

Times and Time Zones

All times are in EDT time to prevent confusion due to time zone crossing. See the LBQ924 flight status page for this flight to view local times or setup timezone preferences in your user account.

Time Position Orientation Groundspeed Altitude Reporting Facility
EDT Latitude Longitude Course Direction KTS MPH feet Rate Location/Type
11:14PM 39.1667 -76.6333 21° North 123 142 1,200  Level Potomac TRACON
11:15PM 39.2000 -76.6167 38° Northeast 126 145 2,700 1,380 Climbing Potomac TRACON
11:16PM 39.2333 -76.5833 38° Northeast 126 145 4,100 1,200 Climbing Potomac TRACON
11:17PM 39.2667 -76.5500 57° Northeast 140 161 5,200 960 Climbing Potomac TRACON
11:18PM 39.2833 -76.5167 38° Northeast 145 167 6,100 840 Climbing Potomac TRACON
11:19PM 39.3167 -76.4833 27° Northeast 145 167 7,000 420 Climbing Potomac TRACON
11:20PM 39.3667 -76.4500 38° Northeast 177 204 7,000  Level Potomac TRACON
11:21PM 39.4000 -76.4167 49° Northeast 186 214 7,000  Level Potomac TRACON
11:22PM 39.4333 -76.3667 27° Northeast 192 221 7,000  Level Potomac TRACON
11:23PM 39.4833 -76.3333 38° Northeast 194 223 7,000  Level Potomac TRACON
11:24PM 39.5333 -76.2833 49° Northeast 196 226 7,000  Level Potomac TRACON
11:25PM 39.5667 -76.2333 35° Northeast 197 227 7,000  Level Potomac TRACON
11:27PM 39.6422 -76.1656 39° Northeast 192 221 7,000  Level FAA TRACON SMA TRACON (SMA)
11:28PM 39.6711 -76.1350 35° Northeast 194 223 7,000  Level FAA TRACON SMA TRACON (SMA)
11:28PM 39.7019 -76.1072 39° Northeast 195 224 7,000  Level FAA TRACON SMA TRACON (SMA)
11:29PM 39.7319 -76.0753 41° Northeast 196 226 7,000 -300 Level FAA TRACON SMA TRACON (SMA)
11:30PM 39.7569 -76.0469 37° Northeast 197 227 6,600 -840 Descending FAA TRACON SMA TRACON (SMA)
11:30PM 39.7886 -76.0156 37° Northeast 206 237 5,900 -840 Descending FAA TRACON SMA TRACON (SMA)
11:31PM 39.8208 -75.9844 37° Northeast 206 237 5,500 -780 Descending FAA TRACON SMA TRACON (SMA)
11:32PM 39.8475 -75.9581 37° Northeast 197 227 4,900 -780 Descending FAA TRACON SMA TRACON (SMA)
11:32PM 39.8792 -75.9269 40° Northeast 200 230 4,500 -780 Descending FAA TRACON SMA TRACON (SMA)
11:33PM 39.9083 -75.8950 38° Northeast 200 230 3,900 -840 Descending FAA TRACON SMA TRACON (SMA)
11:34PM 39.9358 -75.8667 40° Northeast 206 237 3,400 -660 Descending FAA TRACON SMA TRACON (SMA)
11:34PM 39.9664 -75.8336 40° Northeast 200 230 3,100 -480 Descending FAA TRACON SMA TRACON (SMA)